sensor_id;sensor_type;location;lat;lon;timestamp;P1;durP1;ratioP1;P2;durP2;ratioP2
40537;SDS011;27925;41.874;12.526;2023-09-18T00:00:48;21.75;;;10.40;;
40537;SDS011;27925;41.874;12.526;2023-09-18T00:03:15;19.13;;;9.98;;
40537;SDS011;27925;41.874;12.526;2023-09-18T00:05:43;23.73;;;10.75;;
40537;SDS011;27925;41.874;12.526;2023-09-18T00:08:10;17.45;;;9.90;;
40537;SDS011;27925;41.874;12.526;2023-09-18T00:10:36;17.00;;;10.00;;
40537;SDS011;27925;41.874;12.526;2023-09-18T00:13:02;20.55;;;9.73;;
40537;SDS011;27925;41.874;12.526;2023-09-18T00:15:28;18.00;;;9.27;;
40537;SDS011;27925;41.874;12.526;2023-09-18T00:17:53;22.77;;;9.32;;
40537;SDS011;27925;41.874;12.526;2023-09-18T00:20:19;16.25;;;8.57;;
40537;SDS011;27925;41.874;12.526;2023-09-18T00:22:45;14.13;;;8.40;;
40537;SDS011;27925;41.874;12.526;2023-09-18T00:25:11;15.20;;;8.80;;
40537;SDS011;27925;41.874;12.526;2023-09-18T00:27:39;18.42;;;8.65;;
40537;SDS011;27925;41.874;12.526;2023-09-18T00:30:05;19.88;;;9.73;;
40537;SDS011;27925;41.874;12.526;2023-09-18T00:32:32;17.45;;;8.77;;
40537;SDS011;27925;41.874;12.526;2023-09-18T00:34:57;21.70;;;9.18;;
40537;SDS011;27925;41.874;12.526;2023-09-18T00:37:23;15.07;;;8.75;;
40537;SDS011;27925;41.874;12.526;2023-09-18T00:39:49;20.15;;;8.80;;
40537;SDS011;27925;41.874;12.526;2023-09-18T00:42:15;17.63;;;8.95;;
40537;SDS011;27925;41.874;12.526;2023-09-18T00:44:43;15.15;;;8.85;;
40537;SDS011;27925;41.874;12.526;2023-09-18T00:47:09;19.27;;;8.13;;
40537;SDS011;27925;41.874;12.526;2023-09-18T00:49:36;12.35;;;7.78;;
40537;SDS011;27925;41.874;12.526;2023-09-18T00:52:05;14.98;;;8.48;;
40537;SDS011;27925;41.874;12.526;2023-09-18T00:54:32;15.93;;;8.50;;
40537;SDS011;27925;41.874;12.526;2023-09-18T00:57:00;14.00;;;8.10;;
40537;SDS011;27925;41.874;12.526;2023-09-18T00:59:25;17.23;;;8.27;;
40537;SDS011;27925;41.874;12.526;2023-09-18T01:01:51;15.00;;;8.00;;
40537;SDS011;27925;41.874;12.526;2023-09-18T01:04:18;14.88;;;8.55;;
40537;SDS011;27925;41.874;12.526;2023-09-18T01:06:44;18.10;;;7.47;;
40537;SDS011;27925;41.874;12.526;2023-09-18T01:09:10;14.20;;;7.40;;
40537;SDS011;27925;41.874;12.526;2023-09-18T01:11:44;17.42;;;8.20;;
40537;SDS011;27925;41.874;12.526;2023-09-18T01:14:29;14.73;;;8.00;;
40537;SDS011;27925;41.874;12.526;2023-09-18T01:16:59;13.57;;;7.60;;
40537;SDS011;27925;41.874;12.526;2023-09-18T01:19:42;15.38;;;7.75;;
40537;SDS011;27925;41.874;12.526;2023-09-18T01:22:12;18.67;;;8.75;;
40537;SDS011;27925;41.874;12.526;2023-09-18T01:24:40;16.05;;;8.38;;
40537;SDS011;27925;41.874;12.526;2023-09-18T01:27:11;15.40;;;7.93;;
40537;SDS011;27925;41.874;12.526;2023-09-18T01:29:42;14.97;;;7.93;;
40537;SDS011;27925;41.874;12.526;2023-09-18T01:32:08;16.40;;;8.68;;
40537;SDS011;27925;41.874;12.526;2023-09-18T01:34:34;16.10;;;8.45;;
40537;SDS011;27925;41.874;12.526;2023-09-18T01:37:12;16.02;;;8.43;;
40537;SDS011;27925;41.874;12.526;2023-09-18T01:39:40;14.40;;;8.07;;
40537;SDS011;27925;41.874;12.526;2023-09-18T01:42:06;20.50;;;8.27;;
40537;SDS011;27925;41.874;12.526;2023-09-18T01:44:36;17.25;;;8.00;;
40537;SDS011;27925;41.874;12.526;2023-09-18T01:47:09;14.70;;;8.43;;
40537;SDS011;27925;41.874;12.526;2023-09-18T01:49:38;12.85;;;7.45;;
40537;SDS011;27925;41.874;12.526;2023-09-18T01:52:06;20.73;;;8.35;;
40537;SDS011;27925;41.874;12.526;2023-09-18T01:54:33;15.25;;;8.20;;
40537;SDS011;27925;41.874;12.526;2023-09-18T01:56:59;16.40;;;7.88;;
40537;SDS011;27925;41.874;12.526;2023-09-18T01:59:25;18.80;;;8.23;;
40537;SDS011;27925;41.874;12.526;2023-09-18T02:01:52;15.55;;;7.78;;
40537;SDS011;27925;41.874;12.526;2023-09-18T02:04:18;18.00;;;7.65;;
40537;SDS011;27925;41.874;12.526;2023-09-18T02:06:46;14.45;;;7.93;;
40537;SDS011;27925;41.874;12.526;2023-09-18T02:09:13;15.40;;;7.55;;
40537;SDS011;27925;41.874;12.526;2023-09-18T02:11:39;14.63;;;7.90;;
40537;SDS011;27925;41.874;12.526;2023-09-18T02:14:07;13.13;;;7.40;;
40537;SDS011;27925;41.874;12.526;2023-09-18T02:16:35;14.80;;;7.65;;
40537;SDS011;27925;41.874;12.526;2023-09-18T02:19:08;17.00;;;8.60;;
40537;SDS011;27925;41.874;12.526;2023-09-18T02:21:35;15.93;;;8.02;;
40537;SDS011;27925;41.874;12.526;2023-09-18T02:24:01;15.73;;;7.80;;
40537;SDS011;27925;41.874;12.526;2023-09-18T02:26:27;14.43;;;7.55;;
40537;SDS011;27925;41.874;12.526;2023-09-18T02:28:53;19.85;;;8.77;;
40537;SDS011;27925;41.874;12.526;2023-09-18T02:31:23;19.65;;;8.60;;
40537;SDS011;27925;41.874;12.526;2023-09-18T02:33:48;16.80;;;8.18;;
40537;SDS011;27925;41.874;12.526;2023-09-18T02:36:14;16.52;;;8.30;;
40537;SDS011;27925;41.874;12.526;2023-09-18T02:38:40;15.02;;;8.50;;
40537;SDS011;27925;41.874;12.526;2023-09-18T02:41:06;20.25;;;8.18;;
40537;SDS011;27925;41.874;12.526;2023-09-18T02:43:32;13.70;;;7.68;;
40537;SDS011;27925;41.874;12.526;2023-09-18T02:45:57;20.02;;;8.73;;
40537;SDS011;27925;41.874;12.526;2023-09-18T02:48:23;14.77;;;7.65;;
40537;SDS011;27925;41.874;12.526;2023-09-18T02:50:49;21.30;;;8.90;;
40537;SDS011;27925;41.874;12.526;2023-09-18T02:53:18;14.50;;;8.60;;
40537;SDS011;27925;41.874;12.526;2023-09-18T02:55:49;16.33;;;8.13;;
40537;SDS011;27925;41.874;12.526;2023-09-18T02:58:16;17.95;;;8.88;;
40537;SDS011;27925;41.874;12.526;2023-09-18T03:00:44;20.95;;;8.30;;
40537;SDS011;27925;41.874;12.526;2023-09-18T03:03:12;12.98;;;8.63;;
40537;SDS011;27925;41.874;12.526;2023-09-18T03:05:38;19.88;;;8.70;;
40537;SDS011;27925;41.874;12.526;2023-09-18T03:08:04;12.32;;;7.10;;
40537;SDS011;27925;41.874;12.526;2023-09-18T03:10:33;13.07;;;8.27;;
40537;SDS011;27925;41.874;12.526;2023-09-18T03:13:00;15.13;;;8.57;;
40537;SDS011;27925;41.874;12.526;2023-09-18T03:15:27;15.05;;;8.43;;
40537;SDS011;27925;41.874;12.526;2023-09-18T03:17:53;18.52;;;8.55;;
40537;SDS011;27925;41.874;12.526;2023-09-18T03:20:21;19.17;;;8.27;;
40537;SDS011;27925;41.874;12.526;2023-09-18T03:22:48;13.73;;;8.13;;
40537;SDS011;27925;41.874;12.526;2023-09-18T03:25:15;19.05;;;8.57;;
40537;SDS011;27925;41.874;12.526;2023-09-18T03:27:41;15.02;;;8.68;;
40537;SDS011;27925;41.874;12.526;2023-09-18T03:30:07;15.88;;;8.55;;
40537;SDS011;27925;41.874;12.526;2023-09-18T03:32:33;15.30;;;8.50;;
40537;SDS011;27925;41.874;12.526;2023-09-18T03:35:00;16.92;;;8.20;;
40537;SDS011;27925;41.874;12.526;2023-09-18T03:37:25;14.80;;;8.63;;
40537;SDS011;27925;41.874;12.526;2023-09-18T03:39:51;20.60;;;8.88;;
40537;SDS011;27925;41.874;12.526;2023-09-18T03:42:17;15.13;;;8.32;;
40537;SDS011;27925;41.874;12.526;2023-09-18T03:44:42;16.48;;;8.48;;
40537;SDS011;27925;41.874;12.526;2023-09-18T03:47:08;19.48;;;8.55;;
40537;SDS011;27925;41.874;12.526;2023-09-18T03:49:34;14.05;;;7.78;;
40537;SDS011;27925;41.874;12.526;2023-09-18T03:51:59;13.60;;;7.60;;
40537;SDS011;27925;41.874;12.526;2023-09-18T03:54:25;11.93;;;7.82;;
40537;SDS011;27925;41.874;12.526;2023-09-18T03:56:51;16.35;;;8.13;;
40537;SDS011;27925;41.874;12.526;2023-09-18T03:59:16;17.27;;;9.00;;
40537;SDS011;27925;41.874;12.526;2023-09-18T04:01:42;13.88;;;8.85;;
40537;SDS011;27925;41.874;12.526;2023-09-18T04:04:08;17.13;;;8.82;;
40537;SDS011;27925;41.874;12.526;2023-09-18T04:06:37;17.00;;;8.60;;
40537;SDS011;27925;41.874;12.526;2023-09-18T04:09:06;15.87;;;8.97;;
40537;SDS011;27925;41.874;12.526;2023-09-18T04:11:32;12.75;;;8.32;;
40537;SDS011;27925;41.874;12.526;2023-09-18T04:13:58;16.85;;;9.23;;
40537;SDS011;27925;41.874;12.526;2023-09-18T04:16:25;14.52;;;8.57;;
40537;SDS011;27925;41.874;12.526;2023-09-18T04:18:53;17.95;;;8.95;;
40537;SDS011;27925;41.874;12.526;2023-09-18T04:21:19;17.33;;;9.10;;
40537;SDS011;27925;41.874;12.526;2023-09-18T04:23:46;17.35;;;9.63;;
40537;SDS011;27925;41.874;12.526;2023-09-18T04:26:12;16.60;;;9.85;;
40537;SDS011;27925;41.874;12.526;2023-09-18T04:28:41;15.75;;;8.02;;
40537;SDS011;27925;41.874;12.526;2023-09-18T04:31:07;16.20;;;8.90;;
40537;SDS011;27925;41.874;12.526;2023-09-18T04:33:32;19.65;;;8.77;;
40537;SDS011;27925;41.874;12.526;2023-09-18T04:35:58;16.02;;;9.32;;
40537;SDS011;27925;41.874;12.526;2023-09-18T04:38:24;14.25;;;8.90;;
40537;SDS011;27925;41.874;12.526;2023-09-18T04:40:56;18.88;;;9.00;;
40537;SDS011;27925;41.874;12.526;2023-09-18T04:43:23;14.52;;;8.55;;
40537;SDS011;27925;41.874;12.526;2023-09-18T04:45:50;16.80;;;9.10;;
40537;SDS011;27925;41.874;12.526;2023-09-18T04:48:15;13.60;;;8.60;;
40537;SDS011;27925;41.874;12.526;2023-09-18T04:50:42;18.45;;;8.60;;
40537;SDS011;27925;41.874;12.526;2023-09-18T04:53:08;14.70;;;9.05;;
40537;SDS011;27925;41.874;12.526;2023-09-18T04:55:34;15.55;;;9.23;;
40537;SDS011;27925;41.874;12.526;2023-09-18T04:58:00;17.55;;;9.60;;
40537;SDS011;27925;41.874;12.526;2023-09-18T05:00:25;18.38;;;9.32;;
40537;SDS011;27925;41.874;12.526;2023-09-18T05:02:52;20.38;;;9.80;;
40537;SDS011;27925;41.874;12.526;2023-09-18T05:05:18;15.77;;;9.20;;
40537;SDS011;27925;41.874;12.526;2023-09-18T05:07:44;18.90;;;10.40;;
40537;SDS011;27925;41.874;12.526;2023-09-18T05:10:10;17.40;;;10.00;;
40537;SDS011;27925;41.874;12.526;2023-09-18T05:12:38;18.92;;;9.73;;
40537;SDS011;27925;41.874;12.526;2023-09-18T05:15:04;14.23;;;9.07;;
40537;SDS011;27925;41.874;12.526;2023-09-18T05:17:40;15.45;;;9.23;;
40537;SDS011;27925;41.874;12.526;2023-09-18T05:20:08;13.25;;;8.90;;
40537;SDS011;27925;41.874;12.526;2023-09-18T05:22:37;18.88;;;8.98;;
40537;SDS011;27925;41.874;12.526;2023-09-18T05:25:02;17.67;;;8.93;;
40537;SDS011;27925;41.874;12.526;2023-09-18T05:27:30;17.73;;;8.93;;
40537;SDS011;27925;41.874;12.526;2023-09-18T05:29:56;20.30;;;9.27;;
40537;SDS011;27925;41.874;12.526;2023-09-18T05:32:22;15.70;;;9.25;;
40537;SDS011;27925;41.874;12.526;2023-09-18T05:34:48;23.30;;;9.85;;
40537;SDS011;27925;41.874;12.526;2023-09-18T05:37:14;18.50;;;9.43;;
40537;SDS011;27925;41.874;12.526;2023-09-18T05:39:40;16.08;;;9.27;;
40537;SDS011;27925;41.874;12.526;2023-09-18T05:42:06;18.95;;;9.23;;
40537;SDS011;27925;41.874;12.526;2023-09-18T05:44:32;21.48;;;9.63;;
40537;SDS011;27925;41.874;12.526;2023-09-18T05:46:58;18.67;;;9.85;;
40537;SDS011;27925;41.874;12.526;2023-09-18T05:49:24;20.58;;;8.57;;
40537;SDS011;27925;41.874;12.526;2023-09-18T05:51:50;18.17;;;8.65;;
40537;SDS011;27925;41.874;12.526;2023-09-18T05:54:15;20.75;;;9.25;;
40537;SDS011;27925;41.874;12.526;2023-09-18T05:56:41;19.00;;;9.52;;
40537;SDS011;27925;41.874;12.526;2023-09-18T05:59:07;17.33;;;9.18;;
40537;SDS011;27925;41.874;12.526;2023-09-18T06:01:32;16.73;;;8.82;;
40537;SDS011;27925;41.874;12.526;2023-09-18T06:03:58;19.52;;;9.98;;
40537;SDS011;27925;41.874;12.526;2023-09-18T06:06:24;19.92;;;9.85;;
40537;SDS011;27925;41.874;12.526;2023-09-18T06:08:52;21.40;;;8.48;;
40537;SDS011;27925;41.874;12.526;2023-09-18T06:11:19;17.77;;;8.23;;
40537;SDS011;27925;41.874;12.526;2023-09-18T06:13:44;17.77;;;8.27;;
40537;SDS011;27925;41.874;12.526;2023-09-18T06:16:10;23.60;;;9.15;;
40537;SDS011;27925;41.874;12.526;2023-09-18T06:18:36;21.23;;;8.80;;
40537;SDS011;27925;41.874;12.526;2023-09-18T06:21:03;19.77;;;8.15;;
40537;SDS011;27925;41.874;12.526;2023-09-18T06:23:30;19.52;;;7.93;;
40537;SDS011;27925;41.874;12.526;2023-09-18T06:25:56;16.77;;;7.18;;
40537;SDS011;27925;41.874;12.526;2023-09-18T06:28:24;15.43;;;7.82;;
40537;SDS011;27925;41.874;12.526;2023-09-18T06:30:50;16.05;;;7.80;;
40537;SDS011;27925;41.874;12.526;2023-09-18T06:33:16;19.70;;;8.35;;
40537;SDS011;27925;41.874;12.526;2023-09-18T06:35:42;23.90;;;7.95;;
40537;SDS011;27925;41.874;12.526;2023-09-18T06:38:07;20.38;;;8.05;;
40537;SDS011;27925;41.874;12.526;2023-09-18T06:40:35;21.30;;;8.85;;
40537;SDS011;27925;41.874;12.526;2023-09-18T06:43:01;16.80;;;7.47;;
40537;SDS011;27925;41.874;12.526;2023-09-18T06:45:26;22.58;;;7.85;;
40537;SDS011;27925;41.874;12.526;2023-09-18T06:47:55;18.88;;;7.50;;
40537;SDS011;27925;41.874;12.526;2023-09-18T06:50:20;19.83;;;8.18;;
40537;SDS011;27925;41.874;12.526;2023-09-18T06:52:46;20.58;;;7.85;;
40537;SDS011;27925;41.874;12.526;2023-09-18T06:55:12;15.23;;;7.03;;
40537;SDS011;27925;41.874;12.526;2023-09-18T06:57:38;14.95;;;7.43;;
40537;SDS011;27925;41.874;12.526;2023-09-18T07:00:06;17.80;;;8.00;;
40537;SDS011;27925;41.874;12.526;2023-09-18T07:02:32;20.05;;;7.90;;
40537;SDS011;27925;41.874;12.526;2023-09-18T07:04:58;14.45;;;7.07;;
40537;SDS011;27925;41.874;12.526;2023-09-18T07:07:23;20.00;;;8.35;;
40537;SDS011;27925;41.874;12.526;2023-09-18T07:09:50;16.85;;;7.47;;
40537;SDS011;27925;41.874;12.526;2023-09-18T07:12:16;22.45;;;7.60;;
40537;SDS011;27925;41.874;12.526;2023-09-18T07:14:46;23.33;;;7.40;;
40537;SDS011;27925;41.874;12.526;2023-09-18T07:17:12;15.50;;;7.50;;
40537;SDS011;27925;41.874;12.526;2023-09-18T07:19:38;18.83;;;6.95;;
40537;SDS011;27925;41.874;12.526;2023-09-18T07:22:04;18.15;;;7.80;;
40537;SDS011;27925;41.874;12.526;2023-09-18T07:24:30;22.45;;;7.30;;
40537;SDS011;27925;41.874;12.526;2023-09-18T07:26:55;24.70;;;7.63;;
40537;SDS011;27925;41.874;12.526;2023-09-18T07:29:23;17.67;;;7.32;;
40537;SDS011;27925;41.874;12.526;2023-09-18T07:31:50;20.65;;;7.43;;
40537;SDS011;27925;41.874;12.526;2023-09-18T07:34:16;18.17;;;8.05;;
40537;SDS011;27925;41.874;12.526;2023-09-18T07:36:42;17.55;;;7.63;;
40537;SDS011;27925;41.874;12.526;2023-09-18T07:39:09;18.17;;;7.72;;
40537;SDS011;27925;41.874;12.526;2023-09-18T07:41:36;18.65;;;7.93;;
40537;SDS011;27925;41.874;12.526;2023-09-18T07:44:02;22.27;;;8.32;;
40537;SDS011;27925;41.874;12.526;2023-09-18T07:46:28;20.17;;;7.68;;
40537;SDS011;27925;41.874;12.526;2023-09-18T07:48:54;21.30;;;9.23;;
40537;SDS011;27925;41.874;12.526;2023-09-18T07:51:20;17.92;;;7.78;;
40537;SDS011;27925;41.874;12.526;2023-09-18T07:53:46;18.85;;;8.57;;
40537;SDS011;27925;41.874;12.526;2023-09-18T07:56:12;19.17;;;8.05;;
40537;SDS011;27925;41.874;12.526;2023-09-18T07:58:38;21.70;;;7.72;;
40537;SDS011;27925;41.874;12.526;2023-09-18T08:01:06;21.60;;;7.68;;
40537;SDS011;27925;41.874;12.526;2023-09-18T08:03:34;17.88;;;7.47;;
40537;SDS011;27925;41.874;12.526;2023-09-18T08:06:00;22.65;;;7.18;;
40537;SDS011;27925;41.874;12.526;2023-09-18T08:08:26;18.05;;;7.38;;
40537;SDS011;27925;41.874;12.526;2023-09-18T08:10:52;21.23;;;9.10;;
40537;SDS011;27925;41.874;12.526;2023-09-18T08:13:19;17.38;;;7.78;;
40537;SDS011;27925;41.874;12.526;2023-09-18T08:15:45;21.55;;;8.80;;
40537;SDS011;27925;41.874;12.526;2023-09-18T08:18:11;16.55;;;7.50;;
40537;SDS011;27925;41.874;12.526;2023-09-18T08:20:40;19.67;;;7.55;;
40537;SDS011;27925;41.874;12.526;2023-09-18T08:23:09;19.52;;;7.85;;
40537;SDS011;27925;41.874;12.526;2023-09-18T08:25:38;21.63;;;8.43;;
40537;SDS011;27925;41.874;12.526;2023-09-18T08:28:05;17.08;;;8.02;;
40537;SDS011;27925;41.874;12.526;2023-09-18T08:30:31;20.83;;;7.78;;
40537;SDS011;27925;41.874;12.526;2023-09-18T08:32:57;16.13;;;8.45;;
40537;SDS011;27925;41.874;12.526;2023-09-18T08:35:23;17.95;;;7.50;;
40537;SDS011;27925;41.874;12.526;2023-09-18T08:37:54;17.83;;;7.13;;
40537;SDS011;27925;41.874;12.526;2023-09-18T08:40:19;19.15;;;7.57;;
40537;SDS011;27925;41.874;12.526;2023-09-18T08:42:46;20.27;;;7.68;;
40537;SDS011;27925;41.874;12.526;2023-09-18T08:45:23;23.83;;;7.40;;
40537;SDS011;27925;41.874;12.526;2023-09-18T08:47:55;20.00;;;7.75;;
40537;SDS011;27925;41.874;12.526;2023-09-18T08:50:21;19.92;;;8.05;;
40537;SDS011;27925;41.874;12.526;2023-09-18T08:52:48;24.55;;;7.38;;
40537;SDS011;27925;41.874;12.526;2023-09-18T08:55:15;18.80;;;7.32;;
40537;SDS011;27925;41.874;12.526;2023-09-18T08:57:42;17.52;;;7.40;;
40537;SDS011;27925;41.874;12.526;2023-09-18T09:00:10;27.88;;;8.27;;
40537;SDS011;27925;41.874;12.526;2023-09-18T09:02:41;16.88;;;7.40;;
40537;SDS011;27925;41.874;12.526;2023-09-18T09:05:10;19.33;;;7.30;;
40537;SDS011;27925;41.874;12.526;2023-09-18T09:07:36;23.27;;;7.75;;
40537;SDS011;27925;41.874;12.526;2023-09-18T09:10:03;22.77;;;8.63;;
40537;SDS011;27925;41.874;12.526;2023-09-18T09:12:48;16.38;;;7.43;;
40537;SDS011;27925;41.874;12.526;2023-09-18T09:15:21;19.52;;;7.18;;
40537;SDS011;27925;41.874;12.526;2023-09-18T09:17:49;19.88;;;8.45;;
40537;SDS011;27925;41.874;12.526;2023-09-18T09:20:16;18.73;;;8.13;;
40537;SDS011;27925;41.874;12.526;2023-09-18T09:22:44;20.70;;;7.63;;
40537;SDS011;27925;41.874;12.526;2023-09-18T09:25:23;19.40;;;7.30;;
40537;SDS011;27925;41.874;12.526;2023-09-18T09:27:52;20.15;;;8.18;;
40537;SDS011;27925;41.874;12.526;2023-09-18T09:30:20;16.42;;;7.93;;
40537;SDS011;27925;41.874;12.526;2023-09-18T09:32:49;18.77;;;7.80;;
40537;SDS011;27925;41.874;12.526;2023-09-18T09:35:19;21.92;;;7.63;;
40537;SDS011;27925;41.874;12.526;2023-09-18T09:37:52;18.15;;;6.97;;
40537;SDS011;27925;41.874;12.526;2023-09-18T09:40:33;15.48;;;7.10;;
40537;SDS011;27925;41.874;12.526;2023-09-18T09:43:00;15.63;;;7.10;;
40537;SDS011;27925;41.874;12.526;2023-09-18T09:45:27;22.33;;;7.43;;
40537;SDS011;27925;41.874;12.526;2023-09-18T09:47:54;22.15;;;7.15;;
40537;SDS011;27925;41.874;12.526;2023-09-18T09:50:21;15.95;;;7.03;;
40537;SDS011;27925;41.874;12.526;2023-09-18T09:52:48;17.40;;;7.78;;
40537;SDS011;27925;41.874;12.526;2023-09-18T09:55:22;19.50;;;7.18;;
40537;SDS011;27925;41.874;12.526;2023-09-18T09:57:54;15.52;;;5.97;;
40537;SDS011;27925;41.874;12.526;2023-09-18T10:00:23;16.63;;;6.80;;
40537;SDS011;27925;41.874;12.526;2023-09-18T10:02:56;21.98;;;6.03;;
40537;SDS011;27925;41.874;12.526;2023-09-18T10:05:27;15.13;;;6.10;;
40537;SDS011;27925;41.874;12.526;2023-09-18T10:07:57;17.23;;;6.68;;
40537;SDS011;27925;41.874;12.526;2023-09-18T10:10:24;18.77;;;7.07;;
40537;SDS011;27925;41.874;12.526;2023-09-18T10:12:55;17.77;;;7.32;;
40537;SDS011;27925;41.874;12.526;2023-09-18T10:17:58;21.15;;;6.53;;
40537;SDS011;27925;41.874;12.526;2023-09-18T10:20:27;17.83;;;5.70;;
40537;SDS011;27925;41.874;12.526;2023-09-18T10:22:56;11.88;;;5.25;;
40537;SDS011;27925;41.874;12.526;2023-09-18T10:25:24;17.92;;;6.15;;
40537;SDS011;27925;41.874;12.526;2023-09-18T10:27:53;19.17;;;6.40;;
40537;SDS011;27925;41.874;12.526;2023-09-18T10:30:29;17.15;;;5.72;;
40537;SDS011;27925;41.874;12.526;2023-09-18T10:32:57;16.67;;;5.28;;
40537;SDS011;27925;41.874;12.526;2023-09-18T10:35:24;15.80;;;5.22;;
40537;SDS011;27925;41.874;12.526;2023-09-18T10:37:50;19.23;;;4.60;;
40537;SDS011;27925;41.874;12.526;2023-09-18T10:40:20;10.38;;;4.07;;
40537;SDS011;27925;41.874;12.526;2023-09-18T10:42:46;10.00;;;3.72;;
40537;SDS011;27925;41.874;12.526;2023-09-18T10:45:13;9.35;;;3.85;;
40537;SDS011;27925;41.874;12.526;2023-09-18T10:47:41;12.30;;;4.00;;
40537;SDS011;27925;41.874;12.526;2023-09-18T10:50:15;11.70;;;3.75;;
40537;SDS011;27925;41.874;12.526;2023-09-18T10:52:50;10.98;;;4.18;;
40537;SDS011;27925;41.874;12.526;2023-09-18T10:55:15;15.90;;;5.28;;
40537;SDS011;27925;41.874;12.526;2023-09-18T10:57:51;17.48;;;4.93;;
40537;SDS011;27925;41.874;12.526;2023-09-18T11:00:19;9.70;;;4.65;;
40537;SDS011;27925;41.874;12.526;2023-09-18T11:03:09;13.85;;;4.47;;
40537;SDS011;27925;41.874;12.526;2023-09-18T11:05:37;11.95;;;3.78;;
40537;SDS011;27925;41.874;12.526;2023-09-18T11:11:11;9.98;;;4.03;;
40537;SDS011;27925;41.874;12.526;2023-09-18T11:13:46;16.02;;;4.80;;
40537;SDS011;27925;41.874;12.526;2023-09-18T11:18:48;9.07;;;3.78;;
40537;SDS011;27925;41.874;12.526;2023-09-18T11:21:17;10.50;;;4.57;;
40537;SDS011;27925;41.874;12.526;2023-09-18T11:23:48;10.48;;;5.47;;
40537;SDS011;27925;41.874;12.526;2023-09-18T11:29:00;12.77;;;4.10;;
40537;SDS011;27925;41.874;12.526;2023-09-18T11:31:52;8.60;;;3.80;;
40537;SDS011;27925;41.874;12.526;2023-09-18T11:34:22;8.82;;;3.70;;
40537;SDS011;27925;41.874;12.526;2023-09-18T11:36:51;11.52;;;4.32;;
40537;SDS011;27925;41.874;12.526;2023-09-18T11:39:34;10.10;;;4.00;;
40537;SDS011;27925;41.874;12.526;2023-09-18T11:42:07;12.23;;;5.00;;
40537;SDS011;27925;41.874;12.526;2023-09-18T11:44:35;12.27;;;4.72;;
40537;SDS011;27925;41.874;12.526;2023-09-18T11:47:06;11.30;;;4.07;;
40537;SDS011;27925;41.874;12.526;2023-09-18T11:49:57;11.13;;;4.32;;
40537;SDS011;27925;41.874;12.526;2023-09-18T11:52:27;8.45;;;3.42;;
40537;SDS011;27925;41.874;12.526;2023-09-18T11:54:58;9.50;;;3.50;;
40537;SDS011;27925;41.874;12.526;2023-09-18T11:57:25;11.48;;;4.03;;
40537;SDS011;27925;41.874;12.526;2023-09-18T11:59:53;10.80;;;3.70;;
40537;SDS011;27925;41.874;12.526;2023-09-18T12:02:27;8.77;;;3.55;;
40537;SDS011;27925;41.874;12.526;2023-09-18T12:05:04;8.70;;;3.30;;
40537;SDS011;27925;41.874;12.526;2023-09-18T12:07:40;8.80;;;3.17;;
40537;SDS011;27925;41.874;12.526;2023-09-18T12:10:11;8.57;;;2.92;;
40537;SDS011;27925;41.874;12.526;2023-09-18T12:12:39;13.13;;;3.30;;
40537;SDS011;27925;41.874;12.526;2023-09-18T12:15:07;7.55;;;3.15;;
40537;SDS011;27925;41.874;12.526;2023-09-18T12:17:36;5.70;;;3.17;;
40537;SDS011;27925;41.874;12.526;2023-09-18T12:20:02;7.45;;;2.63;;
40537;SDS011;27925;41.874;12.526;2023-09-18T12:22:30;7.57;;;2.80;;
40537;SDS011;27925;41.874;12.526;2023-09-18T12:25:10;10.85;;;3.17;;
40537;SDS011;27925;41.874;12.526;2023-09-18T12:27:37;6.30;;;2.17;;
40537;SDS011;27925;41.874;12.526;2023-09-18T12:30:03;9.60;;;2.50;;
40537;SDS011;27925;41.874;12.526;2023-09-18T12:32:30;7.50;;;2.50;;
40537;SDS011;27925;41.874;12.526;2023-09-18T12:34:57;12.85;;;3.13;;
40537;SDS011;27925;41.874;12.526;2023-09-18T12:37:23;10.20;;;2.90;;
40537;SDS011;27925;41.874;12.526;2023-09-18T12:39:50;7.50;;;2.67;;
40537;SDS011;27925;41.874;12.526;2023-09-18T12:42:20;9.65;;;3.35;;
40537;SDS011;27925;41.874;12.526;2023-09-18T12:44:46;10.38;;;3.05;;
40537;SDS011;27925;41.874;12.526;2023-09-18T12:47:13;11.35;;;3.30;;
40537;SDS011;27925;41.874;12.526;2023-09-18T12:49:39;8.65;;;3.35;;
40537;SDS011;27925;41.874;12.526;2023-09-18T12:52:05;8.13;;;2.90;;
40537;SDS011;27925;41.874;12.526;2023-09-18T12:54:39;13.25;;;4.30;;
40537;SDS011;27925;41.874;12.526;2023-09-18T12:57:06;15.50;;;3.88;;
40537;SDS011;27925;41.874;12.526;2023-09-18T12:59:33;12.13;;;3.70;;
40537;SDS011;27925;41.874;12.526;2023-09-18T13:02:01;14.38;;;3.30;;
40537;SDS011;27925;41.874;12.526;2023-09-18T13:04:34;9.05;;;3.20;;
40537;SDS011;27925;41.874;12.526;2023-09-18T13:07:06;15.25;;;3.17;;
40537;SDS011;27925;41.874;12.526;2023-09-18T13:09:34;13.68;;;3.30;;
40537;SDS011;27925;41.874;12.526;2023-09-18T13:12:00;9.80;;;3.22;;
40537;SDS011;27925;41.874;12.526;2023-09-18T13:14:27;9.50;;;3.20;;
40537;SDS011;27925;41.874;12.526;2023-09-18T13:16:53;12.80;;;3.85;;
40537;SDS011;27925;41.874;12.526;2023-09-18T13:19:25;11.77;;;3.60;;
40537;SDS011;27925;41.874;12.526;2023-09-18T13:21:50;11.65;;;3.75;;
40537;SDS011;27925;41.874;12.526;2023-09-18T13:26:52;12.85;;;3.60;;
40537;SDS011;27925;41.874;12.526;2023-09-18T13:29:19;9.73;;;3.40;;
40537;SDS011;27925;41.874;12.526;2023-09-18T13:31:45;10.35;;;3.30;;
40537;SDS011;27925;41.874;12.526;2023-09-18T13:34:11;8.98;;;3.30;;
40537;SDS011;27925;41.874;12.526;2023-09-18T13:36:37;11.88;;;4.00;;
40537;SDS011;27925;41.874;12.526;2023-09-18T13:39:03;11.80;;;3.95;;
40537;SDS011;27925;41.874;12.526;2023-09-18T13:41:29;7.63;;;3.25;;
40537;SDS011;27925;41.874;12.526;2023-09-18T13:43:56;14.63;;;3.85;;
40537;SDS011;27925;41.874;12.526;2023-09-18T13:46:22;8.90;;;3.28;;
40537;SDS011;27925;41.874;12.526;2023-09-18T13:48:48;13.30;;;4.13;;
40537;SDS011;27925;41.874;12.526;2023-09-18T13:51:14;12.95;;;3.42;;
40537;SDS011;27925;41.874;12.526;2023-09-18T13:53:40;11.35;;;3.67;;
40537;SDS011;27925;41.874;12.526;2023-09-18T13:56:06;8.13;;;3.60;;
40537;SDS011;27925;41.874;12.526;2023-09-18T13:58:32;11.95;;;4.60;;
40537;SDS011;27925;41.874;12.526;2023-09-18T14:00:58;11.32;;;4.07;;
40537;SDS011;27925;41.874;12.526;2023-09-18T14:03:25;13.25;;;4.00;;
40537;SDS011;27925;41.874;12.526;2023-09-18T14:05:50;9.63;;;3.97;;
40537;SDS011;27925;41.874;12.526;2023-09-18T14:08:16;11.68;;;4.30;;
40537;SDS011;27925;41.874;12.526;2023-09-18T14:10:43;11.18;;;3.85;;
40537;SDS011;27925;41.874;12.526;2023-09-18T14:13:09;10.45;;;4.05;;
40537;SDS011;27925;41.874;12.526;2023-09-18T14:15:35;11.05;;;3.70;;
40537;SDS011;27925;41.874;12.526;2023-09-18T14:18:02;13.60;;;4.07;;
40537;SDS011;27925;41.874;12.526;2023-09-18T14:20:28;13.68;;;4.18;;
40537;SDS011;27925;41.874;12.526;2023-09-18T14:22:54;15.30;;;4.32;;
40537;SDS011;27925;41.874;12.526;2023-09-18T14:25:20;10.27;;;3.70;;
40537;SDS011;27925;41.874;12.526;2023-09-18T14:27:47;12.23;;;4.15;;
40537;SDS011;27925;41.874;12.526;2023-09-18T14:30:13;12.65;;;4.10;;
40537;SDS011;27925;41.874;12.526;2023-09-18T14:32:39;15.75;;;4.35;;
40537;SDS011;27925;41.874;12.526;2023-09-18T14:35:05;15.73;;;5.63;;
40537;SDS011;27925;41.874;12.526;2023-09-18T14:37:33;15.77;;;4.18;;
40537;SDS011;27925;41.874;12.526;2023-09-18T14:39:59;16.73;;;4.45;;